createdAt,value
2018-08-27T00:02:18.408Z,7.70
2018-08-27T00:04:46.694Z,7.53
2018-08-27T00:07:14.985Z,7.10
2018-08-27T00:09:43.145Z,7.10
2018-08-27T00:12:11.314Z,7.27
2018-08-27T00:14:39.490Z,7.00
2018-08-27T00:17:07.729Z,7.20
2018-08-27T00:19:35.901Z,7.30
2018-08-27T00:22:04.074Z,7.03
2018-08-27T00:24:32.241Z,7.23
2018-08-27T00:27:00.450Z,8.20
2018-08-27T00:29:28.669Z,7.80
2018-08-27T00:31:56.874Z,7.57
2018-08-27T00:34:25.314Z,7.00
2018-08-27T00:36:53.487Z,8.00
2018-08-27T00:39:22.097Z,8.60
2018-08-27T00:41:50.855Z,7.37
2018-08-27T00:44:19.247Z,8.10
2018-08-27T00:46:47.613Z,8.30
2018-08-27T00:49:15.973Z,8.97
2018-08-27T00:51:44.169Z,8.20
2018-08-27T00:54:12.393Z,8.37
2018-08-27T00:56:40.641Z,7.90
2018-08-27T00:59:08.871Z,7.77
2018-08-27T01:01:37.033Z,7.70
2018-08-27T01:04:05.357Z,7.83
2018-08-27T01:06:33.593Z,7.73
2018-08-27T01:09:01.805Z,7.67
2018-08-27T01:11:30.057Z,7.27
2018-08-27T01:13:58.237Z,6.73
2018-08-27T01:16:26.426Z,7.43
2018-08-27T01:18:54.637Z,8.07
2018-08-27T01:21:22.925Z,6.50
2018-08-27T01:23:51.193Z,7.30
2018-08-27T01:26:19.377Z,6.70
2018-08-27T01:28:47.582Z,6.87
2018-08-27T01:31:15.769Z,7.30
2018-08-27T01:33:44.053Z,6.63
2018-08-27T01:36:12.249Z,7.07
2018-08-27T01:38:40.529Z,7.47
2018-08-27T01:41:08.701Z,7.67
2018-08-27T01:43:36.881Z,7.03
2018-08-27T01:46:05.081Z,7.27
2018-08-27T01:48:33.277Z,7.00
2018-08-27T01:51:01.461Z,7.47
2018-08-27T01:53:29.638Z,7.17
2018-08-27T01:55:57.850Z,7.67
2018-08-27T01:58:26.156Z,6.50
2018-08-27T02:00:54.397Z,6.83
2018-08-27T02:03:22.585Z,6.43
2018-08-27T02:05:50.789Z,6.63
2018-08-27T02:08:19.081Z,6.83
2018-08-27T02:10:47.245Z,6.60
2018-08-27T02:13:15.464Z,8.13
2018-08-27T02:15:43.726Z,7.10
2018-08-27T02:18:11.883Z,6.73
2018-08-27T02:20:40.053Z,8.30
2018-08-27T02:23:08.233Z,7.70
2018-08-27T02:25:36.475Z,7.40
2018-08-27T02:28:04.661Z,7.00
2018-08-27T02:30:32.841Z,7.60
2018-08-27T02:33:01.011Z,7.87
2018-08-27T02:35:29.244Z,7.53
2018-08-27T02:37:57.398Z,7.73
2018-08-27T02:40:26.313Z,7.00
2018-08-27T02:42:54.884Z,7.17
2018-08-27T02:45:23.041Z,6.77
2018-08-27T02:47:51.265Z,6.67
2018-08-27T02:50:19.474Z,6.17
2018-08-27T02:52:47.633Z,6.87
2018-08-27T02:55:15.813Z,6.03
2018-08-27T02:57:43.989Z,5.90
2018-08-27T03:00:12.211Z,6.03
2018-08-27T03:02:40.385Z,5.97
2018-08-27T03:05:08.717Z,5.67
2018-08-27T03:07:37.110Z,5.00
2018-08-27T03:10:05.322Z,6.03
2018-08-27T03:12:33.503Z,5.57
2018-08-27T03:15:01.738Z,5.80
2018-08-27T03:17:29.910Z,5.57
2018-08-27T03:19:58.181Z,5.97
2018-08-27T03:22:26.357Z,5.50
2018-08-27T03:24:54.588Z,5.90
2018-08-27T03:27:22.758Z,6.07
2018-08-27T03:29:50.914Z,6.10
2018-08-27T03:32:19.075Z,5.50
2018-08-27T03:34:47.245Z,5.00
2018-08-27T03:37:15.516Z,5.87
2018-08-27T03:39:43.691Z,6.20
2018-08-27T03:42:11.907Z,6.30
2018-08-27T03:44:40.070Z,5.20
2018-08-27T03:47:08.261Z,5.33
2018-08-27T03:49:36.465Z,5.20
2018-08-27T03:52:04.613Z,5.43
2018-08-27T03:54:32.817Z,5.23
2018-08-27T03:57:00.993Z,4.60
2018-08-27T03:59:29.204Z,5.47
2018-08-27T04:01:57.360Z,5.00
2018-08-27T04:04:25.561Z,5.47
2018-08-27T04:06:53.753Z,5.57
2018-08-27T04:09:21.913Z,5.10
2018-08-27T04:11:50.101Z,4.80
2018-08-27T04:14:18.309Z,5.30
2018-08-27T04:16:46.501Z,5.03
2018-08-27T04:19:14.677Z,5.10
2018-08-27T04:21:43.074Z,4.70
2018-08-27T04:24:11.269Z,4.90
2018-08-27T04:26:39.425Z,4.53
2018-08-27T04:29:07.621Z,4.97
2018-08-27T04:31:35.805Z,4.90
2018-08-27T04:34:04.026Z,5.17
2018-08-27T04:36:32.311Z,4.50
2018-08-27T04:39:00.583Z,4.53
2018-08-27T04:41:28.789Z,4.90
2018-08-27T04:43:56.986Z,4.87
2018-08-27T04:46:25.154Z,4.40
2018-08-27T04:48:53.329Z,5.00
2018-08-27T04:51:21.510Z,4.70
2018-08-27T04:53:49.673Z,4.90
2018-08-27T04:56:17.854Z,5.00
2018-08-27T04:58:47.154Z,4.93
2018-08-27T05:01:15.328Z,5.60
2018-08-27T05:03:43.514Z,5.60
2018-08-27T05:06:11.674Z,5.33
2018-08-27T05:08:39.837Z,5.87
2018-08-27T05:11:08.014Z,5.53
2018-08-27T05:13:36.186Z,5.50
2018-08-27T05:16:04.371Z,6.00
2018-08-27T05:18:32.545Z,5.60
2018-08-27T05:21:00.734Z,5.87
2018-08-27T05:23:28.902Z,5.40
2018-08-27T05:25:57.091Z,6.00
2018-08-27T05:28:25.253Z,5.80
2018-08-27T05:30:53.491Z,6.30
2018-08-27T05:33:21.649Z,5.73
2018-08-27T05:35:49.810Z,5.93
2018-08-27T05:38:18.093Z,5.83
2018-08-27T05:40:46.169Z,5.50
2018-08-27T05:43:14.341Z,5.90
2018-08-27T05:45:42.521Z,6.30
2018-08-27T05:48:10.717Z,6.57
2018-08-27T05:50:38.895Z,5.70
2018-08-27T05:53:07.062Z,6.20
2018-08-27T05:55:35.314Z,6.20
2018-08-27T05:58:03.497Z,5.93
2018-08-27T06:00:31.665Z,6.70
2018-08-27T06:02:59.846Z,5.80
2018-08-27T06:05:28.005Z,5.50
2018-08-27T06:07:56.169Z,5.80
2018-08-27T06:10:24.351Z,6.87
2018-08-27T06:12:52.529Z,6.40
2018-08-27T06:15:20.741Z,6.40
2018-08-27T06:17:49.003Z,5.43
2018-08-27T06:20:17.173Z,5.00
2018-08-27T06:22:45.338Z,6.20
2018-08-27T06:25:13.580Z,4.80
2018-08-27T06:27:41.673Z,4.70
2018-08-27T06:30:09.900Z,4.40
2018-08-27T06:32:38.157Z,4.57
2018-08-27T06:35:06.333Z,4.90
2018-08-27T06:37:34.496Z,4.97
2018-08-27T06:40:02.682Z,4.63
2018-08-27T06:42:30.841Z,3.90
2018-08-27T06:44:59.019Z,4.17
2018-08-27T06:47:27.218Z,5.10
2018-08-27T06:49:55.411Z,4.60
2018-08-27T06:52:23.583Z,5.00
2018-08-27T06:54:51.763Z,4.80
2018-08-27T06:57:19.925Z,4.63
2018-08-27T06:59:48.099Z,5.47
2018-08-27T07:02:16.351Z,4.53
2018-08-27T07:04:44.513Z,4.50
2018-08-27T07:07:12.694Z,4.60
2018-08-27T07:09:40.919Z,4.93
2018-08-27T07:12:09.145Z,4.40
2018-08-27T07:14:37.593Z,4.20
2018-08-27T07:17:06.321Z,4.33
2018-08-27T07:19:34.962Z,4.63
2018-08-27T07:22:03.121Z,4.90
2018-08-27T07:24:31.310Z,4.30
2018-08-27T07:26:59.497Z,5.70
2018-08-27T07:29:27.740Z,4.60
2018-08-27T07:31:55.913Z,4.87
2018-08-27T07:34:24.073Z,5.30
2018-08-27T07:36:52.237Z,4.70
2018-08-27T07:39:20.413Z,4.57
2018-08-27T07:41:48.574Z,4.40
2018-08-27T07:44:16.770Z,4.73
2018-08-27T07:46:44.953Z,4.30
2018-08-27T07:49:13.113Z,4.40
2018-08-27T07:51:41.319Z,4.90
2018-08-27T07:54:09.502Z,5.30
2018-08-27T07:56:37.781Z,5.27
2018-08-27T07:59:05.913Z,4.93
2018-08-27T08:01:34.550Z,4.73
2018-08-27T08:04:02.794Z,4.80
2018-08-27T08:06:30.969Z,4.80
2018-08-27T08:08:59.153Z,5.00
2018-08-27T08:11:27.337Z,4.90
2018-08-27T08:13:55.581Z,5.00
2018-08-27T08:16:23.764Z,4.70
2018-08-27T08:18:51.929Z,4.20
2018-08-27T08:21:20.100Z,4.40
2018-08-27T08:23:48.361Z,4.53
2018-08-27T08:26:16.549Z,4.60
2018-08-27T08:28:44.729Z,4.40
2018-08-27T08:31:12.907Z,4.70
2018-08-27T08:33:41.095Z,5.43
2018-08-27T08:36:09.461Z,6.00
2018-08-27T08:38:37.766Z,4.87
2018-08-27T08:41:05.958Z,4.70
2018-08-27T08:43:34.135Z,4.57
2018-08-27T08:46:02.585Z,6.43
2018-08-27T08:49:01.635Z,5.63
2018-08-27T08:51:29.817Z,5.37
2018-08-27T08:53:58.017Z,5.80
2018-08-27T08:56:26.206Z,4.17
2018-08-27T08:58:54.401Z,5.33
2018-08-27T09:01:22.682Z,4.90
2018-08-27T09:03:50.754Z,4.67
2018-08-27T09:06:18.972Z,4.67
2018-08-27T09:08:47.103Z,4.90
2018-08-27T09:11:15.293Z,5.47
2018-08-27T09:13:43.477Z,4.37
2018-08-27T09:16:11.653Z,5.27
2018-08-27T09:18:39.861Z,5.07
2018-08-27T09:21:08.044Z,4.93
2018-08-27T09:23:36.320Z,5.20
2018-08-27T09:26:04.457Z,5.03
2018-08-27T09:28:32.643Z,5.30
2018-08-27T09:31:00.842Z,5.77
2018-08-27T09:33:29.009Z,5.70
2018-08-27T09:35:57.206Z,5.67
2018-08-27T09:38:25.401Z,5.77
2018-08-27T09:40:53.569Z,5.13
2018-08-27T09:43:21.862Z,5.63
2018-08-27T09:45:50.089Z,5.30
2018-08-27T09:48:18.222Z,4.97
2018-08-27T09:50:46.423Z,4.67
2018-08-27T09:53:14.643Z,5.33
2018-08-27T09:55:42.777Z,6.13
2018-08-27T09:58:10.974Z,6.30
2018-08-27T10:00:44.446Z,5.83
2018-08-27T10:03:12.632Z,5.50
2018-08-27T10:05:40.813Z,5.60
2018-08-27T10:08:08.989Z,5.73
2018-08-27T10:10:37.181Z,5.83
2018-08-27T10:13:05.413Z,5.50
2018-08-27T10:15:33.609Z,5.77
2018-08-27T10:18:01.790Z,5.87
2018-08-27T10:20:29.985Z,5.30
2018-08-27T10:22:58.196Z,5.17
2018-08-27T10:25:26.366Z,6.67
2018-08-27T10:27:54.577Z,4.90
2018-08-27T10:30:22.750Z,5.00
2018-08-27T10:32:50.977Z,5.27
2018-08-27T10:35:19.157Z,4.80
2018-08-27T10:37:47.365Z,4.83
2018-08-27T10:40:15.551Z,4.77
2018-08-27T10:42:43.798Z,5.90
2018-08-27T10:45:13.090Z,5.30
2018-08-27T10:47:43.252Z,5.20
2018-08-27T10:50:11.506Z,5.20
2018-08-27T10:52:39.614Z,4.83
2018-08-27T10:55:07.811Z,5.60
2018-08-27T10:57:35.983Z,4.97
2018-08-27T11:00:04.261Z,4.67
2018-08-27T11:02:32.433Z,5.50
2018-08-27T11:05:00.601Z,4.70
2018-08-27T11:07:28.761Z,5.83
2018-08-27T11:09:56.950Z,5.60
2018-08-27T11:12:25.130Z,5.33
2018-08-27T11:14:53.353Z,5.50
2018-08-27T11:17:22.381Z,5.50
2018-08-27T11:19:50.641Z,5.50
2018-08-27T11:22:18.870Z,6.13
2018-08-27T11:24:47.061Z,4.97
2018-08-27T11:27:15.239Z,5.40
2018-08-27T11:29:43.482Z,4.43
2018-08-27T11:32:11.694Z,5.43
2018-08-27T11:34:39.981Z,5.77
2018-08-27T11:37:08.209Z,5.23
2018-08-27T11:39:36.418Z,6.17
2018-08-27T11:42:04.693Z,5.40
2018-08-27T11:44:32.897Z,5.07
2018-08-27T11:47:01.314Z,5.70
2018-08-27T11:49:29.508Z,4.93
2018-08-27T11:51:57.725Z,5.20
2018-08-27T11:54:26.013Z,5.20
2018-08-27T11:56:54.209Z,5.83
2018-08-27T11:59:22.364Z,5.00
2018-08-27T12:01:50.561Z,4.97
2018-08-27T12:04:18.749Z,5.50
2018-08-27T12:06:46.973Z,6.50
2018-08-27T12:09:15.157Z,5.20
2018-08-27T12:11:43.401Z,5.00
2018-08-27T12:14:11.562Z,5.10
2018-08-27T12:16:39.780Z,5.80
2018-08-27T12:19:09.038Z,4.37
2018-08-27T12:21:37.262Z,4.80
2018-08-27T12:24:05.525Z,4.70
2018-08-27T12:26:33.685Z,4.67
2018-08-27T12:29:01.846Z,4.80
2018-08-27T12:31:30.033Z,4.33
2018-08-27T12:33:58.201Z,4.40
2018-08-27T12:36:26.378Z,4.87
2018-08-27T12:38:54.558Z,5.90
2018-08-27T12:41:22.793Z,4.90
2018-08-27T12:43:50.954Z,4.80
2018-08-27T12:46:19.137Z,4.70
2018-08-27T12:48:47.313Z,5.00
2018-08-27T12:51:15.509Z,4.97
2018-08-27T12:53:43.669Z,6.57
2018-08-27T12:56:11.838Z,4.80
2018-08-27T12:58:40.079Z,5.20
2018-08-27T13:01:08.221Z,5.10
2018-08-27T13:03:36.389Z,5.03
2018-08-27T13:06:04.569Z,4.47
2018-08-27T13:08:32.761Z,5.10
2018-08-27T13:11:00.933Z,4.90
2018-08-27T13:13:29.110Z,5.10
2018-08-27T13:15:57.298Z,6.23
2018-08-27T13:18:25.461Z,4.50
2018-08-27T13:20:53.654Z,5.20
2018-08-27T13:23:21.865Z,4.50
2018-08-27T13:25:50.089Z,4.57
2018-08-27T13:28:18.222Z,4.67
2018-08-27T13:31:00.917Z,4.63
2018-08-27T13:33:29.091Z,4.40
2018-08-27T13:35:57.258Z,4.63
2018-08-27T13:38:25.469Z,4.53
2018-08-27T13:40:53.642Z,4.37
2018-08-27T13:43:21.838Z,4.40
2018-08-27T13:45:50.094Z,3.97
2018-08-27T13:48:18.270Z,4.73
2018-08-27T13:50:46.423Z,4.80
2018-08-27T13:53:14.607Z,4.77
2018-08-27T13:55:42.787Z,4.40
2018-08-27T13:58:10.949Z,5.03
2018-08-27T14:00:39.137Z,5.20
2018-08-27T14:03:07.385Z,5.27
2018-08-27T14:05:35.569Z,4.60
2018-08-27T14:08:03.761Z,5.50
2018-08-27T14:10:31.966Z,5.03
2018-08-27T14:13:00.102Z,5.20
2018-08-27T14:15:28.404Z,5.00
2018-08-27T14:17:56.494Z,5.53
2018-08-27T14:20:24.970Z,5.30
2018-08-27T14:22:53.150Z,4.50
2018-08-27T14:25:21.353Z,5.90
2018-08-27T14:27:49.543Z,4.73
2018-08-27T14:30:17.821Z,4.77
2018-08-27T14:32:46.016Z,5.10
2018-08-27T14:35:14.157Z,5.47
2018-08-27T14:37:42.343Z,4.50
2018-08-27T14:40:10.861Z,5.03
2018-08-27T14:42:39.100Z,4.90
2018-08-27T14:45:08.026Z,5.20
2018-08-27T14:47:36.134Z,4.20
2018-08-27T14:50:04.465Z,5.10
2018-08-27T14:52:32.650Z,5.30
2018-08-27T14:55:00.817Z,5.40
2018-08-27T14:57:29.026Z,5.33
2018-08-27T14:59:57.210Z,5.73
2018-08-27T15:02:25.377Z,5.10
2018-08-27T15:04:53.553Z,5.50
2018-08-27T15:07:21.745Z,4.70
2018-08-27T15:09:49.922Z,4.73
2018-08-27T15:12:18.133Z,5.33
2018-08-27T15:14:46.313Z,5.80
2018-08-27T15:17:14.487Z,4.80
2018-08-27T15:19:42.673Z,5.57
2018-08-27T15:22:11.101Z,5.30
2018-08-27T15:24:39.300Z,4.93
2018-08-27T15:27:07.479Z,5.80
2018-08-27T15:29:35.699Z,4.77
2018-08-27T15:32:03.925Z,5.00
2018-08-27T15:34:32.191Z,4.77
2018-08-27T15:37:00.453Z,5.10
2018-08-27T15:39:28.686Z,4.77
2018-08-27T15:41:56.913Z,4.83
2018-08-27T15:44:25.116Z,4.77
2018-08-27T15:46:53.282Z,5.80
2018-08-27T15:49:21.486Z,4.70
2018-08-27T15:51:49.692Z,4.80
2018-08-27T15:54:17.877Z,4.53
2018-08-27T15:56:46.061Z,4.67
2018-08-27T15:59:14.245Z,4.50
2018-08-27T16:01:42.506Z,4.47
2018-08-27T16:04:10.716Z,4.40
2018-08-27T16:06:38.853Z,4.50
2018-08-27T16:09:07.123Z,4.40
2018-08-27T16:11:35.296Z,5.10
2018-08-27T16:14:03.451Z,4.80
2018-08-27T16:16:31.686Z,5.00
2018-08-27T16:18:59.886Z,4.97
2018-08-27T16:21:28.078Z,5.50
2018-08-27T16:23:56.254Z,5.03
2018-08-27T16:26:24.473Z,4.80
2018-08-27T16:28:52.722Z,5.00
2018-08-27T16:31:20.893Z,5.10
2018-08-27T16:33:49.090Z,5.47
2018-08-27T16:36:17.378Z,4.33
2018-08-27T16:38:45.541Z,4.30
2018-08-27T16:41:13.738Z,4.63
2018-08-27T16:43:41.965Z,4.87
2018-08-27T16:46:10.149Z,4.97
2018-08-27T16:48:38.342Z,4.70
2018-08-27T16:51:06.601Z,4.50
2018-08-27T16:53:36.325Z,4.33
2018-08-27T16:56:04.782Z,4.67
2018-08-27T16:58:33.029Z,5.57
2018-08-27T17:01:01.121Z,6.80
2018-08-27T17:03:29.317Z,6.17
2018-08-27T17:05:57.477Z,5.37
2018-08-27T17:08:25.649Z,6.87
2018-08-27T17:10:53.830Z,4.70
2018-08-27T17:13:21.997Z,4.97
2018-08-27T17:15:50.165Z,5.23
2018-08-27T17:18:18.383Z,5.10
2018-08-27T17:20:46.586Z,4.40
2018-08-27T17:23:14.770Z,4.93
2018-08-27T17:25:42.953Z,6.27
2018-08-27T17:28:11.109Z,4.70
2018-08-27T17:30:39.394Z,7.57
2018-08-27T17:33:07.673Z,4.60
2018-08-27T17:35:35.902Z,5.20
2018-08-27T17:38:04.205Z,5.70
2018-08-27T17:40:32.434Z,5.40
2018-08-27T17:43:00.649Z,5.47
2018-08-27T17:45:28.880Z,4.40
2018-08-27T17:47:57.038Z,10.53
2018-08-27T17:50:25.330Z,5.60
2018-08-27T17:52:53.513Z,4.87
2018-08-27T17:55:21.718Z,7.73
2018-08-27T17:57:49.905Z,6.27
2018-08-27T18:00:18.061Z,6.60
2018-08-27T18:02:46.237Z,5.13
2018-08-27T18:05:15.006Z,6.13
2018-08-27T18:07:43.184Z,8.03
2018-08-27T18:10:11.409Z,11.40
2018-08-27T18:12:39.585Z,5.63
2018-08-27T18:15:09.050Z,7.30
2018-08-27T18:17:37.739Z,6.10
2018-08-27T18:20:06.066Z,5.03
2018-08-27T18:22:34.339Z,5.77
2018-08-27T18:25:02.533Z,4.97
2018-08-27T18:27:30.673Z,5.90
2018-08-27T18:29:58.858Z,5.40
2018-08-27T18:32:27.187Z,4.93
2018-08-27T18:34:56.422Z,5.80
2018-08-27T18:37:24.735Z,4.67
2018-08-27T18:39:53.018Z,5.57
2018-08-27T18:42:21.249Z,4.50
2018-08-27T18:44:49.426Z,4.83
2018-08-27T18:47:17.614Z,4.73
2018-08-27T18:49:45.818Z,5.30
2018-08-27T18:52:14.920Z,4.60
2018-08-27T18:54:43.228Z,5.57
2018-08-27T18:57:11.586Z,4.87
2018-08-27T18:59:39.776Z,5.47
2018-08-27T19:02:08.182Z,4.80
2018-08-27T19:04:36.411Z,4.50
2018-08-27T19:07:05.293Z,4.57
2018-08-27T19:09:33.669Z,4.10
2018-08-27T19:12:02.011Z,4.77
2018-08-27T19:14:30.238Z,4.30
2018-08-27T19:16:58.415Z,4.67
2018-08-27T19:19:26.637Z,4.77
2018-08-27T19:21:54.813Z,4.30
2018-08-27T19:24:23.055Z,4.10
2018-08-27T19:26:51.201Z,4.30
2018-08-27T19:29:19.401Z,4.67
2018-08-27T19:31:47.603Z,4.90
2018-08-27T19:34:15.769Z,6.23
2018-08-27T19:36:44.076Z,4.90
2018-08-27T19:39:12.746Z,4.97
2018-08-27T19:41:40.895Z,5.23
2018-08-27T19:44:09.452Z,5.30
2018-08-27T19:46:37.705Z,4.77
2018-08-27T19:49:05.984Z,5.90
2018-08-27T19:51:34.330Z,4.77
2018-08-27T19:54:02.565Z,5.07
2018-08-27T19:56:30.829Z,6.27
2018-08-27T19:58:59.081Z,8.67
2018-08-27T20:01:27.274Z,5.53
2018-08-27T20:03:57.911Z,5.07
2018-08-27T20:06:26.094Z,4.70
2018-08-27T20:08:54.345Z,5.33
2018-08-27T20:11:22.600Z,5.17
2018-08-27T20:13:50.782Z,5.13
2018-08-27T20:16:19.059Z,4.63
2018-08-27T20:18:48.018Z,4.97
2018-08-27T20:21:16.241Z,5.80
2018-08-27T20:23:44.567Z,5.00
2018-08-27T20:26:12.778Z,5.43
2018-08-27T20:28:40.907Z,4.90
2018-08-27T20:31:09.123Z,5.67
2018-08-27T20:33:37.310Z,5.23
2018-08-27T20:36:05.482Z,5.50
2018-08-27T20:38:33.654Z,4.73
2018-08-27T20:41:01.862Z,4.93
2018-08-27T20:43:30.046Z,5.40
2018-08-27T20:45:58.253Z,5.10
2018-08-27T20:48:26.521Z,6.40
2018-08-27T20:50:54.802Z,4.83
2018-08-27T20:53:23.015Z,5.73
2018-08-27T20:55:51.285Z,5.97
2018-08-27T20:58:19.467Z,5.50
2018-08-27T21:00:47.693Z,5.23
2018-08-27T21:03:16.077Z,5.17
2018-08-27T21:05:44.350Z,5.77
2018-08-27T21:08:12.549Z,5.53
2018-08-27T21:10:40.866Z,5.27
2018-08-27T21:13:09.285Z,5.20
2018-08-27T21:15:37.478Z,5.23
2018-08-27T21:18:05.662Z,6.10
2018-08-27T21:20:33.881Z,5.20
2018-08-27T21:23:02.186Z,5.20
2018-08-27T21:25:30.442Z,5.43
2018-08-27T21:27:58.630Z,6.30
2018-08-27T21:30:26.848Z,6.30
2018-08-27T21:32:55.130Z,6.20
2018-08-27T21:35:23.523Z,5.60
2018-08-27T21:37:51.697Z,5.97
2018-08-27T21:40:19.977Z,6.50
2018-08-27T21:42:48.165Z,6.07
2018-08-27T21:45:16.371Z,6.23
2018-08-27T21:47:44.634Z,5.77
2018-08-27T21:50:12.885Z,5.33
2018-08-27T21:52:41.125Z,5.47
2018-08-27T21:55:09.445Z,6.33
2018-08-27T21:57:37.705Z,4.80
2018-08-27T22:00:06.662Z,5.03
2018-08-27T22:02:40.323Z,4.80
2018-08-27T22:13:39.929Z,5.00
2018-08-27T22:16:08.941Z,5.37
2018-08-27T22:18:37.106Z,6.13
2018-08-27T22:21:05.621Z,5.90
2018-08-27T22:23:33.802Z,5.47
2018-08-27T22:26:01.966Z,5.63
2018-08-27T22:28:30.131Z,5.77
2018-08-27T22:30:58.385Z,5.90
2018-08-27T22:33:26.553Z,5.40
2018-08-27T22:35:54.733Z,6.30
2018-08-27T22:38:22.977Z,5.70
2018-08-27T22:40:51.225Z,6.00
2018-08-27T22:43:19.501Z,5.87
2018-08-27T22:45:47.694Z,5.60
2018-08-27T22:48:15.858Z,6.30
2018-08-27T22:50:44.101Z,5.97
2018-08-27T22:53:12.365Z,5.97
2018-08-27T22:55:40.681Z,5.07
2018-08-27T22:58:08.933Z,6.00
2018-08-27T23:00:37.182Z,5.20
2018-08-27T23:03:10.769Z,5.17
2018-08-27T23:05:39.061Z,5.33
2018-08-27T23:08:07.305Z,6.50
2018-08-27T23:10:35.653Z,5.37
2018-08-27T23:13:03.931Z,5.20
2018-08-27T23:15:32.185Z,5.07
2018-08-27T23:18:00.465Z,5.30
2018-08-27T23:20:28.704Z,5.70
2018-08-27T23:22:56.905Z,5.60
2018-08-27T23:25:25.315Z,5.40
2018-08-27T23:27:53.685Z,6.37
2018-08-27T23:30:21.958Z,5.87
2018-08-27T23:32:50.382Z,6.23
2018-08-27T23:35:18.719Z,5.80
2018-08-27T23:37:46.978Z,5.40
2018-08-27T23:40:15.247Z,6.30
2018-08-27T23:42:43.517Z,6.47
2018-08-27T23:45:11.760Z,6.10
2018-08-27T23:47:39.963Z,5.97
2018-08-27T23:50:08.286Z,7.10
2018-08-27T23:52:36.707Z,6.20
2018-08-27T23:55:04.947Z,6.83
2018-08-27T23:57:33.196Z,6.00
